createdAt,value
2023-05-19T00:00:02.336Z,1022.6
2023-05-19T00:15:02.799Z,1022.6
2023-05-19T00:30:02.222Z,1022.8
2023-05-19T00:45:02.826Z,1022.3
2023-05-19T01:00:02.107Z,1022.5
2023-05-19T01:15:02.549Z,1022.5
2023-05-19T01:30:02.969Z,1022.5
2023-05-19T01:45:02.413Z,1022.4
2023-05-19T02:00:02.878Z,1022.5
2023-05-19T02:15:02.307Z,1022.5
2023-05-19T02:30:02.810Z,1022.4
2023-05-19T02:45:03.184Z,1022.5
2023-05-19T03:00:02.588Z,1022.4
2023-05-19T03:15:03.008Z,1022.4
2023-05-19T03:30:04.988Z,1022.1
2023-05-19T03:45:02.901Z,1022.1
2023-05-19T04:00:02.313Z,1022.4
2023-05-19T04:15:02.843Z,1022.4
2023-05-19T04:30:02.219Z,1022.5
2023-05-19T04:45:02.844Z,1022.4
2023-05-19T05:00:02.071Z,1022.5
2023-05-19T05:15:02.486Z,1022.4
2023-05-19T05:30:02.916Z,1022.5
2023-05-19T05:45:02.341Z,1022.4
2023-05-19T06:00:02.872Z,1022.4
2023-05-19T06:15:02.282Z,1022.3
2023-05-19T06:30:02.881Z,1022.3
2023-05-19T06:45:02.142Z,1022.3
2023-05-19T07:00:02.557Z,1022.3
2023-05-19T07:15:02.991Z,1022.2
2023-05-19T07:30:02.392Z,1022.1
2023-05-19T07:45:02.912Z,1022.1
2023-05-19T08:00:02.285Z,1022.1
2023-05-19T08:15:02.880Z,1021.9
2023-05-19T08:30:02.170Z,1021.9
2023-05-19T08:45:02.622Z,1021.7
2023-05-19T09:00:03.059Z,1021.6
2023-05-19T09:15:02.462Z,1021.5
2023-05-19T09:30:02.922Z,1021.4
2023-05-19T09:45:02.326Z,1021.3
2023-05-19T10:00:02.913Z,1021.2
2023-05-19T10:15:02.197Z,1020.9
2023-05-19T10:30:02.888Z,1021.0
2023-05-19T10:45:02.089Z,1020.9
2023-05-19T11:00:02.546Z,1020.7
2023-05-19T11:15:02.999Z,1020.7
2023-05-19T11:30:02.465Z,1020.6
2023-05-19T11:45:02.918Z,1020.4
2023-05-19T12:00:02.278Z,1020.5
2023-05-19T12:15:02.928Z,1020.5
2023-05-19T12:30:02.175Z,1020.3
2023-05-19T12:45:03.423Z,1020.0
2023-05-19T13:00:03.087Z,1020.2
2023-05-19T13:15:02.469Z,1020.1
2023-05-19T13:30:02.943Z,1019.9
2023-05-19T13:45:02.368Z,1019.8
2023-05-19T14:00:04.134Z,1019.9
2023-05-19T14:30:03.076Z,1019.7
2023-05-19T14:45:02.160Z,1019.7
2023-05-19T15:00:02.654Z,1019.6
2023-05-19T15:15:03.059Z,1019.5
2023-05-19T15:30:02.454Z,1019.6
2023-05-19T15:45:02.971Z,1019.5
2023-05-19T16:00:02.334Z,1019.5
2023-05-19T16:15:02.985Z,1019.5
2023-05-19T16:30:02.209Z,1019.3
2023-05-19T16:45:02.696Z,1019.2
2023-05-19T17:00:03.154Z,1019.2
2023-05-19T17:15:02.531Z,1019.2
2023-05-19T17:30:02.984Z,1019.2
2023-05-19T17:45:02.445Z,1019.2
2023-05-19T18:00:02.979Z,1019.4
2023-05-19T18:15:02.281Z,1019.3
2023-05-19T18:30:02.913Z,1019.3
2023-05-19T18:45:02.190Z,1019.4
2023-05-19T19:00:02.588Z,1019.5
2023-05-19T19:15:03.037Z,1019.6
2023-05-19T19:30:02.453Z,1019.7
2023-05-19T19:45:03.003Z,1019.9
2023-05-19T20:00:02.338Z,1020.0
2023-05-19T20:15:02.992Z,1020.1
2023-05-19T20:30:02.200Z,1020.1
2023-05-19T20:45:02.634Z,1020.0
2023-05-19T21:00:03.143Z,1020.1
2023-05-19T21:15:02.507Z,1020.2
2023-05-19T21:30:03.054Z,1020.1
2023-05-19T21:45:02.395Z,1020.2
2023-05-19T22:00:03.032Z,1020.2
2023-05-19T22:15:02.293Z,1020.2
2023-05-19T22:30:02.746Z,1020.3
2023-05-19T22:45:03.169Z,1020.3
2023-05-19T23:00:02.624Z,1020.2
2023-05-19T23:15:03.054Z,1020.3
2023-05-19T23:30:02.477Z,1020.3
2023-05-19T23:45:03.034Z,1020.2
